createdAt,value
2022-09-15T17:17:35.408Z,63.03
2022-09-15T17:20:02.706Z,64.89
2022-09-15T17:22:32.029Z,67.13
2022-09-15T17:25:00.166Z,69.03
2022-09-15T17:27:27.323Z,70.26
2022-09-15T17:29:54.073Z,70.94
2022-09-15T17:32:20.830Z,71.01
2022-09-15T17:34:47.879Z,72.14
2022-09-15T17:37:14.789Z,72.66
2022-09-15T17:39:41.578Z,72.49
2022-09-15T17:42:09.471Z,73.38
2022-09-15T17:44:37.754Z,73.84
2022-09-15T17:47:04.798Z,74.05
2022-09-15T17:49:31.816Z,73.87
2022-09-15T17:51:58.599Z,72.68
2022-09-15T17:54:25.862Z,71.70
2022-09-15T17:56:52.990Z,70.74
2022-09-15T17:59:19.735Z,70.17
2022-09-15T18:01:46.820Z,69.72
2022-09-15T18:04:13.862Z,68.59
2022-09-15T18:06:45.269Z,68.03
2022-09-15T18:09:14.786Z,67.41
2022-09-15T18:11:41.944Z,67.15
2022-09-15T18:14:09.230Z,66.88
2022-09-15T18:16:36.058Z,66.66
2022-09-15T18:19:03.184Z,66.37
2022-09-15T18:21:30.237Z,65.90
2022-09-15T18:23:57.169Z,66.25
2022-09-15T18:26:26.689Z,65.44
2022-09-15T18:28:54.846Z,65.75
2022-09-15T18:31:21.984Z,65.65
2022-09-15T18:33:49.435Z,65.63
2022-09-15T18:36:16.209Z,66.54
2022-09-15T18:38:43.287Z,66.33
2022-09-15T18:41:11.840Z,65.61
2022-09-15T18:43:39.095Z,65.53
2022-09-15T18:46:06.228Z,65.85
2022-09-15T18:48:33.339Z,66.02
2022-09-15T18:51:00.156Z,65.64
2022-09-15T18:53:27.271Z,66.01
2022-09-15T21:43:48.692Z,81.55
2022-09-15T21:46:18.296Z,80.96
2022-09-15T21:48:47.332Z,80.33
2022-09-15T21:51:15.346Z,79.40
2022-09-15T21:53:43.067Z,77.96
2022-09-15T21:56:11.548Z,77.16
2022-09-15T21:58:42.856Z,77.23
2022-09-15T22:01:14.610Z,76.70
2022-09-15T22:03:44.885Z,76.38
2022-09-15T22:06:12.755Z,75.38
2022-09-15T22:08:40.083Z,75.10
2022-09-15T22:11:07.859Z,75.36
2022-09-15T22:13:39.689Z,73.94
2022-09-15T22:16:08.031Z,73.35
2022-09-15T22:18:38.803Z,72.48
2022-09-15T22:21:05.583Z,71.55
2022-09-15T22:23:32.497Z,71.08
2022-09-15T22:26:06.937Z,70.94
2022-09-15T22:28:33.765Z,70.64
2022-09-15T22:31:02.097Z,69.67
2022-09-15T22:33:29.023Z,69.93
2022-09-15T22:35:56.994Z,69.81
2022-09-15T22:38:25.139Z,69.52
2022-09-15T22:40:51.925Z,69.40
2022-09-15T22:43:18.804Z,69.19
2022-09-15T22:45:45.940Z,69.43
2022-09-15T22:48:12.661Z,69.53
2022-09-15T22:50:39.729Z,71.17
2022-09-15T22:53:06.994Z,71.59
2022-09-15T22:55:33.860Z,71.17
2022-09-15T22:58:00.666Z,71.13
2022-09-15T23:00:27.681Z,70.87
2022-09-15T23:02:54.433Z,71.24
2022-09-15T23:05:21.240Z,72.12
2022-09-15T23:07:48.505Z,72.56
2022-09-15T23:10:15.624Z,72.79
2022-09-15T23:12:42.442Z,73.01
2022-09-15T23:15:09.650Z,73.09
2022-09-15T23:17:36.895Z,73.70
2022-09-15T23:20:04.169Z,73.57
2022-09-15T23:22:31.251Z,73.83
2022-09-15T23:24:58.024Z,73.66
2022-09-15T23:27:24.851Z,73.38
2022-09-15T23:29:51.850Z,73.61
2022-09-15T23:32:18.558Z,74.71
2022-09-15T23:34:45.506Z,73.94
2022-09-15T23:37:12.538Z,74.94
2022-09-15T23:39:39.520Z,75.65
2022-09-15T23:42:06.439Z,75.58
2022-09-15T23:44:33.455Z,75.66
2022-09-15T23:47:00.259Z,76.02
2022-09-15T23:49:27.136Z,76.56
2022-09-15T23:51:54.164Z,76.00
2022-09-15T23:54:20.942Z,76.64
2022-09-15T23:56:47.808Z,76.43
2022-09-15T23:59:16.061Z,77.08
